createdAt,value
2018-11-21T00:02:00.225Z,21.83
2018-11-21T00:04:47.811Z,20.53
2018-11-21T00:07:36.084Z,21.13
2018-11-21T00:10:23.667Z,22.20
2018-11-21T00:16:05.182Z,19.57
2018-11-21T00:18:52.744Z,20.80
2018-11-21T00:21:40.335Z,22.27
2018-11-21T00:24:27.911Z,21.20
2018-11-21T00:27:15.506Z,21.00
2018-11-21T00:30:03.215Z,20.80
2018-11-21T00:32:50.811Z,21.30
2018-11-21T00:35:38.396Z,21.40
2018-11-21T00:38:25.972Z,21.03
2018-11-21T00:41:13.555Z,20.57
2018-11-21T00:44:01.146Z,21.07
2018-11-21T00:46:48.744Z,20.80
2018-11-21T00:49:36.313Z,21.73
2018-11-21T00:52:23.901Z,22.53
2018-11-21T00:55:11.504Z,21.73
2018-11-21T00:57:59.103Z,22.43
2018-11-21T01:00:46.692Z,22.20
2018-11-21T01:03:34.297Z,21.17
2018-11-21T01:06:21.884Z,28.00
2018-11-21T01:09:09.468Z,26.30
2018-11-21T01:11:57.049Z,22.83
2018-11-21T01:14:44.656Z,21.97
2018-11-21T01:17:32.238Z,21.30
2018-11-21T01:20:19.832Z,22.20
2018-11-21T01:23:00.129Z,22.97
2018-11-21T01:25:41.072Z,22.87
2018-11-21T01:28:22.177Z,22.70
2018-11-21T01:31:02.963Z,20.03
2018-11-21T01:33:43.552Z,22.13
2018-11-21T01:36:24.684Z,21.97
2018-11-21T01:39:05.410Z,23.80
2018-11-21T01:41:45.569Z,21.77
2018-11-21T01:44:26.703Z,24.87
2018-11-21T01:47:07.087Z,22.43
2018-11-21T01:49:47.409Z,21.53
2018-11-21T01:52:27.596Z,23.63
2018-11-21T01:55:08.107Z,22.60
2018-11-21T01:57:48.250Z,21.93
2018-11-21T02:00:28.392Z,23.67
2018-11-21T02:03:08.564Z,23.77
2018-11-21T02:05:49.145Z,23.50
2018-11-21T02:08:30.114Z,23.77
2018-11-21T02:11:11.005Z,23.90
2018-11-21T02:13:51.846Z,23.17
2018-11-21T02:16:32.226Z,20.97
2018-11-21T02:19:13.147Z,22.97
2018-11-21T02:21:53.638Z,23.47
2018-11-21T02:24:34.586Z,21.90
2018-11-21T02:27:15.657Z,21.93
2018-11-21T02:29:56.834Z,21.53
2018-11-21T02:32:37.601Z,22.73
2018-11-21T02:35:18.054Z,23.63
2018-11-21T02:37:58.857Z,21.53
2018-11-21T02:40:39.352Z,19.80
2018-11-21T02:43:19.997Z,22.27
2018-11-21T02:46:00.845Z,20.80
2018-11-21T02:48:41.017Z,21.43
2018-11-21T02:51:21.266Z,20.83
2018-11-21T02:54:01.436Z,19.87
2018-11-21T02:56:41.700Z,19.93
2018-11-21T02:59:22.658Z,19.57
2018-11-21T03:02:02.951Z,21.57
2018-11-21T03:04:43.639Z,22.13
2018-11-21T03:07:24.048Z,21.77
2018-11-21T03:10:04.948Z,20.80
2018-11-21T03:12:45.134Z,22.50
2018-11-21T03:15:25.390Z,22.23
2018-11-21T03:18:05.672Z,20.77
2018-11-21T03:20:45.852Z,22.70
2018-11-21T03:23:26.613Z,21.03
2018-11-21T03:26:07.002Z,20.00
2018-11-21T03:28:47.352Z,20.60
2018-11-21T03:31:27.870Z,21.33
2018-11-21T03:34:08.675Z,22.60
2018-11-21T03:36:50.508Z,22.53
2018-11-21T03:39:31.326Z,21.13
2018-11-21T03:42:10.013Z,21.07
2018-11-21T03:44:57.854Z,20.73
2018-11-21T03:47:45.471Z,20.03
2018-11-21T03:50:33.063Z,20.00
2018-11-21T03:53:20.678Z,21.00
2018-11-21T03:56:08.300Z,21.67
2018-11-21T03:58:55.905Z,21.23
2018-11-21T04:01:43.521Z,22.07
2018-11-21T04:04:31.389Z,21.97
2018-11-21T04:07:19.018Z,22.73
2018-11-21T04:10:08.157Z,23.37
2018-11-21T04:12:55.758Z,20.57
2018-11-21T04:15:43.357Z,20.57
2018-11-21T04:18:30.968Z,22.13
2018-11-21T04:21:18.591Z,21.17
2018-11-21T04:24:06.198Z,21.27
2018-11-21T04:26:53.807Z,20.53
2018-11-21T04:29:41.405Z,21.73
2018-11-21T04:32:29.004Z,22.13
2018-11-21T04:35:16.624Z,22.30
2018-11-21T04:38:04.345Z,20.50
2018-11-21T04:40:51.933Z,20.57
2018-11-21T04:43:39.559Z,21.60
2018-11-21T04:46:27.144Z,22.33
2018-11-21T04:49:14.753Z,23.13
2018-11-21T04:52:02.557Z,23.20
2018-11-21T04:54:50.170Z,22.40
2018-11-21T04:57:37.793Z,22.40
2018-11-21T05:00:25.393Z,22.83
2018-11-21T05:03:13.125Z,24.37
2018-11-21T05:06:00.729Z,22.20
2018-11-21T05:08:48.580Z,22.63
2018-11-21T05:11:36.173Z,22.03
2018-11-21T05:14:23.780Z,23.80
2018-11-21T05:17:11.389Z,24.70
2018-11-21T05:19:59.259Z,23.90
2018-11-21T05:22:46.873Z,23.10
2018-11-21T05:25:34.487Z,22.50
2018-11-21T05:28:22.134Z,25.03
2018-11-21T05:31:09.720Z,25.27
2018-11-21T05:33:57.337Z,28.17
2018-11-21T05:36:44.926Z,27.83
2018-11-21T05:39:32.531Z,26.57
2018-11-21T05:42:20.150Z,25.37
2018-11-21T05:45:08.116Z,28.40
2018-11-21T05:47:55.718Z,28.37
2018-11-21T05:50:43.329Z,28.97
2018-11-21T05:53:30.935Z,30.07
2018-11-21T05:56:18.547Z,32.93
2018-11-21T05:59:06.156Z,32.10
2018-11-21T06:01:53.757Z,26.47
2018-11-21T06:04:41.370Z,29.53
2018-11-21T06:07:28.964Z,30.73
2018-11-21T06:10:16.581Z,28.53
2018-11-21T06:13:04.174Z,28.93
2018-11-21T06:15:51.772Z,29.27
2018-11-21T06:18:39.360Z,31.67
2018-11-21T06:21:26.960Z,33.73
2018-11-21T06:24:14.545Z,33.20
2018-11-21T06:27:02.920Z,39.53
2018-11-21T06:29:50.525Z,29.53
2018-11-21T06:32:38.167Z,28.93
2018-11-21T06:35:25.768Z,30.67
2018-11-21T06:38:13.373Z,37.00
2018-11-21T06:41:00.976Z,30.00
2018-11-21T06:43:48.572Z,26.60
2018-11-21T06:46:36.232Z,25.17
2018-11-21T06:49:23.852Z,24.07
2018-11-21T06:52:11.457Z,23.40
2018-11-21T06:54:59.052Z,25.20
2018-11-21T06:57:46.758Z,23.17
2018-11-21T07:00:34.382Z,21.73
2018-11-21T07:03:21.968Z,23.80
2018-11-21T07:06:09.576Z,22.03
2018-11-21T07:08:57.248Z,21.77
2018-11-21T07:11:44.849Z,21.77
2018-11-21T07:14:32.445Z,19.83
2018-11-21T07:17:20.049Z,21.67
2018-11-21T07:20:08.486Z,24.17
2018-11-21T07:22:56.077Z,25.90
2018-11-21T07:25:43.680Z,26.63
2018-11-21T07:28:31.274Z,29.10
2018-11-21T07:31:18.882Z,28.17
2018-11-21T07:34:06.726Z,29.13
2018-11-21T07:36:54.317Z,27.50
2018-11-21T07:39:41.917Z,25.87
2018-11-21T07:42:29.516Z,27.00
2018-11-21T07:45:17.111Z,27.50
2018-11-21T07:48:04.880Z,28.03
2018-11-21T07:50:52.476Z,30.20
2018-11-21T07:53:40.061Z,32.87
2018-11-21T07:56:47.069Z,36.17
2018-11-21T07:59:34.659Z,27.70
2018-11-21T08:05:28.996Z,27.30
2018-11-21T08:08:35.778Z,25.93
2018-11-21T08:11:42.550Z,25.17
2018-11-21T08:14:49.336Z,23.03
2018-11-21T08:17:56.129Z,23.63
2018-11-21T08:21:02.892Z,22.57
2018-11-21T08:24:09.669Z,24.60
2018-11-21T08:27:16.441Z,25.50
2018-11-21T08:30:04.178Z,27.17
2018-11-21T08:32:51.774Z,24.80
2018-11-21T08:35:39.366Z,22.23
2018-11-21T08:38:27.223Z,22.63
2018-11-21T08:41:14.809Z,35.23
2018-11-21T08:44:02.441Z,25.90
2018-11-21T08:46:50.031Z,23.47
2018-11-21T08:49:37.618Z,24.63
2018-11-21T08:52:25.219Z,30.27
2018-11-21T08:55:13.001Z,28.57
2018-11-21T08:58:00.588Z,24.57
2018-11-21T09:00:48.808Z,25.63
2018-11-21T09:03:36.407Z,26.93
2018-11-21T09:06:23.998Z,22.90
2018-11-21T09:09:11.592Z,23.20
2018-11-21T09:11:59.171Z,22.97
2018-11-21T09:14:46.767Z,23.20
2018-11-21T09:17:34.350Z,23.80
2018-11-21T09:20:21.935Z,22.13
2018-11-21T09:23:09.531Z,22.47
2018-11-21T09:25:57.136Z,24.10
2018-11-21T09:28:44.721Z,23.77
2018-11-21T09:31:32.329Z,22.90
2018-11-21T09:34:19.918Z,24.47
2018-11-21T09:37:07.511Z,24.00
2018-11-21T09:39:55.098Z,25.03
2018-11-21T09:45:50.696Z,23.80
2018-11-21T09:48:38.279Z,21.73
2018-11-21T09:51:25.876Z,26.00
2018-11-21T09:54:13.464Z,25.60
2018-11-21T09:57:01.315Z,23.90
2018-11-21T09:59:48.919Z,26.30
2018-11-21T10:02:55.937Z,23.93
2018-11-21T10:05:43.887Z,25.30
2018-11-21T10:08:52.875Z,26.57
2018-11-21T10:11:40.471Z,26.37
2018-11-21T10:14:28.070Z,26.17
2018-11-21T10:17:15.648Z,26.03
2018-11-21T10:20:03.248Z,26.47
2018-11-21T10:22:50.835Z,25.23
2018-11-21T10:25:38.424Z,30.27
2018-11-21T10:28:26.114Z,34.93
2018-11-21T10:31:13.715Z,27.10
2018-11-21T10:34:01.297Z,29.20
2018-11-21T10:36:48.896Z,32.10
2018-11-21T10:39:36.481Z,28.07
2018-11-21T10:42:24.069Z,41.13
2018-11-21T10:45:11.645Z,44.07
2018-11-21T10:47:59.240Z,39.60
2018-11-21T10:50:46.851Z,34.67
2018-11-21T10:53:34.447Z,28.97
2018-11-21T10:56:22.034Z,31.87
2018-11-21T10:59:09.613Z,28.13
2018-11-21T11:02:16.407Z,27.00
2018-11-21T11:08:40.791Z,30.83
2018-11-21T11:11:47.559Z,26.40
2018-11-21T11:14:54.328Z,26.53
2018-11-21T11:18:01.113Z,27.00
2018-11-21T11:21:02.217Z,26.43
2018-11-21T11:24:09.006Z,26.90
2018-11-21T11:27:15.793Z,28.03
2018-11-21T11:30:22.557Z,25.67
2018-11-21T11:33:29.341Z,27.03
2018-11-21T11:36:36.118Z,25.20
2018-11-21T11:39:43.148Z,24.97
2018-11-21T11:42:49.928Z,26.03
2018-11-21T11:45:56.697Z,25.77
2018-11-21T11:49:03.520Z,27.33
2018-11-21T11:52:10.312Z,26.47
2018-11-21T11:55:17.086Z,27.53
2018-11-21T11:58:23.868Z,25.40
2018-11-21T12:01:30.904Z,26.80
2018-11-21T12:04:31.212Z,26.20
2018-11-21T12:07:30.607Z,25.93
2018-11-21T12:10:30.436Z,25.47
2018-11-21T12:13:29.922Z,27.23
2018-11-21T12:16:30.000Z,25.17
2018-11-21T12:19:29.302Z,24.63
2018-11-21T12:22:17.920Z,25.30
2018-11-21T12:25:12.005Z,26.43
2018-11-21T12:28:11.941Z,27.97
2018-11-21T12:31:11.195Z,25.33
2018-11-21T12:34:06.695Z,27.20
2018-11-21T12:37:06.456Z,24.57
2018-11-21T12:40:06.413Z,25.23
2018-11-21T12:46:09.413Z,26.03
2018-11-21T12:49:09.646Z,24.77
2018-11-21T12:51:58.621Z,24.80
2018-11-21T12:54:58.795Z,25.33
2018-11-21T12:57:58.295Z,24.07
2018-11-21T13:00:58.181Z,24.63
2018-11-21T13:03:58.264Z,23.70
2018-11-21T13:06:57.594Z,24.23
2018-11-21T13:09:57.003Z,22.63
2018-11-21T13:12:56.971Z,23.67
2018-11-21T13:15:44.860Z,23.67
2018-11-21T13:18:44.516Z,24.00
2018-11-21T13:21:44.255Z,24.63
2018-11-21T13:27:36.378Z,23.27
2018-11-21T13:30:35.948Z,24.20
2018-11-21T13:33:36.172Z,25.00
2018-11-21T13:36:36.236Z,25.90
2018-11-21T13:39:35.752Z,24.57
2018-11-21T13:42:24.528Z,24.97
2018-11-21T13:45:11.084Z,23.87
2018-11-21T13:47:56.565Z,24.47
2018-11-21T13:50:56.487Z,24.57
2018-11-21T13:53:56.302Z,23.43
2018-11-21T13:56:37.074Z,24.60
2018-11-21T13:59:17.263Z,23.77
2018-11-21T14:01:57.521Z,26.23
2018-11-21T14:04:38.351Z,24.60
2018-11-21T14:07:19.344Z,23.23
2018-11-21T14:10:00.047Z,24.73
2018-11-21T14:12:40.335Z,26.07
2018-11-21T14:15:20.468Z,24.70
2018-11-21T14:18:00.903Z,25.20
2018-11-21T14:20:41.134Z,23.00
2018-11-21T14:23:21.633Z,23.83
2018-11-21T14:26:02.063Z,24.60
2018-11-21T14:28:42.916Z,25.10
2018-11-21T14:31:23.486Z,24.70
2018-11-21T14:34:04.502Z,24.47
2018-11-21T14:36:45.404Z,25.07
2018-11-21T14:39:25.767Z,23.10
2018-11-21T14:42:08.448Z,24.83
2018-11-21T14:44:46.983Z,23.93
2018-11-21T14:47:27.317Z,23.57
2018-11-21T14:50:07.461Z,25.80
2018-11-21T14:52:47.672Z,23.97
2018-11-21T14:55:27.978Z,25.53
2018-11-21T14:58:08.420Z,25.10
2018-11-21T15:00:48.659Z,25.63
2018-11-21T15:03:29.651Z,25.33
2018-11-21T15:06:10.077Z,26.37
2018-11-21T15:08:50.701Z,24.50
2018-11-21T15:11:31.222Z,24.93
2018-11-21T15:14:11.926Z,23.27
2018-11-21T15:16:52.740Z,23.87
2018-11-21T15:19:33.126Z,24.10
2018-11-21T15:22:13.900Z,25.60
2018-11-21T15:24:54.860Z,25.67
2018-11-21T15:27:35.413Z,23.20
2018-11-21T15:30:17.968Z,25.63
2018-11-21T15:32:58.336Z,25.17
2018-11-21T15:35:38.845Z,25.37
2018-11-21T15:38:19.226Z,25.00
2018-11-21T15:40:59.767Z,26.47
2018-11-21T15:43:39.927Z,24.30
2018-11-21T15:46:20.449Z,25.50
2018-11-21T15:49:00.742Z,25.63
2018-11-21T15:51:40.970Z,25.40
2018-11-21T15:54:21.877Z,25.77
2018-11-21T15:57:02.210Z,26.10
2018-11-21T15:59:42.922Z,25.77
2018-11-21T16:02:23.688Z,25.17
2018-11-21T16:05:03.848Z,25.47
2018-11-21T16:07:44.233Z,25.10
2018-11-21T16:10:26.586Z,24.30
2018-11-21T16:13:07.565Z,25.90
2018-11-21T16:15:50.062Z,26.13
2018-11-21T16:18:31.005Z,24.60
2018-11-21T16:21:11.240Z,24.93
2018-11-21T16:23:51.482Z,27.87
2018-11-21T16:26:31.681Z,28.57
2018-11-21T16:29:12.076Z,25.63
2018-11-21T16:31:52.242Z,27.33
2018-11-21T16:34:33.125Z,26.20
2018-11-21T16:37:14.161Z,24.63
2018-11-21T16:39:54.923Z,26.60
2018-11-21T16:42:35.271Z,27.07
2018-11-21T16:45:17.555Z,26.43
2018-11-21T16:47:58.491Z,27.57
2018-11-21T16:50:38.915Z,26.63
2018-11-21T16:53:19.263Z,24.93
2018-11-21T16:55:59.742Z,26.10
2018-11-21T16:58:40.448Z,25.73
2018-11-21T17:01:20.977Z,27.07
2018-11-21T17:04:01.540Z,30.37
2018-11-21T17:06:42.012Z,27.30
2018-11-21T17:09:22.914Z,25.93
2018-11-21T17:12:03.527Z,25.60
2018-11-21T17:14:44.340Z,25.20
2018-11-21T17:17:23.018Z,25.40
2018-11-21T17:20:12.516Z,26.87
2018-11-21T17:23:00.737Z,27.07
2018-11-21T17:25:48.352Z,26.73
2018-11-21T17:28:35.952Z,25.93
2018-11-21T17:31:23.823Z,24.77
2018-11-21T17:34:11.418Z,25.67
2018-11-21T17:36:59.014Z,26.07
2018-11-21T17:39:46.607Z,23.87
2018-11-21T17:42:34.209Z,23.50
2018-11-21T17:45:21.931Z,24.40
2018-11-21T17:48:09.522Z,25.17
2018-11-21T17:50:57.111Z,24.23
2018-11-21T17:53:44.685Z,28.93
2018-11-21T17:56:32.352Z,27.20
2018-11-21T17:59:19.956Z,25.23
2018-11-21T18:02:07.531Z,26.13
2018-11-21T18:04:55.141Z,26.70
2018-11-21T18:07:42.882Z,24.77
2018-11-21T18:10:32.389Z,24.83
2018-11-21T18:13:19.991Z,25.63
2018-11-21T18:15:48.158Z,25.07
2018-11-21T18:18:35.732Z,24.60
2018-11-21T18:21:23.326Z,26.77
2018-11-21T18:24:10.940Z,25.97
2018-11-21T18:26:58.549Z,27.20
2018-11-21T18:29:46.154Z,25.90
2018-11-21T18:32:33.734Z,28.07
2018-11-21T18:38:29.236Z,26.80
2018-11-21T18:41:16.846Z,27.30
2018-11-21T18:44:04.428Z,27.00
2018-11-21T18:46:52.039Z,26.37
2018-11-21T18:49:39.642Z,26.73
2018-11-21T18:52:27.241Z,27.57
2018-11-21T18:55:16.564Z,24.77
2018-11-21T18:58:23.590Z,24.37
2018-11-21T19:04:18.252Z,27.87
2018-11-21T19:07:05.928Z,28.00
2018-11-21T19:09:53.499Z,29.87
2018-11-21T19:12:41.130Z,29.40
2018-11-21T19:15:28.720Z,28.90
2018-11-21T19:18:16.327Z,26.77
2018-11-21T19:21:03.912Z,30.63
2018-11-21T19:23:51.521Z,29.17
2018-11-21T19:26:39.111Z,28.73
2018-11-21T19:29:26.707Z,28.30
2018-11-21T19:32:14.283Z,26.13
2018-11-21T19:35:09.146Z,28.53
2018-11-21T19:37:56.748Z,29.03
2018-11-21T19:40:44.323Z,29.87
2018-11-21T19:43:31.912Z,27.07
2018-11-21T19:46:19.490Z,28.50
2018-11-21T19:49:07.080Z,27.57
2018-11-21T19:51:54.658Z,26.37
2018-11-21T19:54:42.243Z,24.67
2018-11-21T19:57:29.841Z,26.37
2018-11-21T20:00:22.033Z,25.47
2018-11-21T20:03:09.654Z,25.20
2018-11-21T20:05:57.229Z,26.87
2018-11-21T20:08:44.841Z,27.67
2018-11-21T20:11:32.452Z,30.63
2018-11-21T20:14:20.050Z,30.67
2018-11-21T20:17:07.660Z,27.47
2018-11-21T20:19:55.295Z,27.57
2018-11-21T20:22:43.352Z,27.90
2018-11-21T20:25:30.947Z,29.00
2018-11-21T20:28:18.547Z,29.73
2018-11-21T20:31:06.140Z,28.50
2018-11-21T20:33:53.724Z,28.17
2018-11-21T20:36:41.325Z,30.33
2018-11-21T20:39:28.943Z,29.97
2018-11-21T20:42:18.107Z,29.43
2018-11-21T20:45:05.139Z,28.90
2018-11-21T20:47:53.857Z,28.67
2018-11-21T20:50:41.481Z,27.03
2018-11-21T20:53:29.346Z,27.90
2018-11-21T20:56:16.974Z,26.67
2018-11-21T20:59:04.789Z,27.30
2018-11-21T21:01:52.397Z,25.67
2018-11-21T21:04:39.990Z,29.00
2018-11-21T21:07:27.632Z,26.83
2018-11-21T21:10:34.448Z,27.03
2018-11-21T21:13:22.021Z,30.83
2018-11-21T21:16:09.670Z,28.27
2018-11-21T21:18:57.275Z,29.23
2018-11-21T21:21:44.884Z,28.40
2018-11-21T21:24:32.466Z,26.63
2018-11-21T21:27:20.071Z,26.23
2018-11-21T21:30:09.223Z,24.60
2018-11-21T21:32:56.905Z,25.10
2018-11-21T21:35:44.525Z,26.87
2018-11-21T21:38:32.120Z,24.83
2018-11-21T21:41:19.756Z,25.73
2018-11-21T21:44:07.357Z,26.77
2018-11-21T21:46:54.973Z,26.10
2018-11-21T21:49:42.576Z,27.57
2018-11-21T21:52:30.676Z,28.67
2018-11-21T21:55:19.430Z,30.27
2018-11-21T21:58:07.042Z,32.90
2018-11-21T22:00:54.692Z,29.80
2018-11-21T22:03:42.273Z,31.50
2018-11-21T22:06:29.859Z,31.17
2018-11-21T22:09:17.453Z,31.17
2018-11-21T22:12:05.064Z,30.87
2018-11-21T22:14:52.660Z,32.63
2018-11-21T22:17:40.272Z,31.70
2018-11-21T22:20:27.862Z,30.87
2018-11-21T22:23:15.513Z,31.40
2018-11-21T22:26:03.086Z,32.70
2018-11-21T22:28:50.689Z,32.60
2018-11-21T22:31:38.293Z,32.27
2018-11-21T22:34:25.889Z,31.60
2018-11-21T22:37:13.513Z,30.03
2018-11-21T22:40:01.084Z,29.70
2018-11-21T22:42:48.920Z,30.73
2018-11-21T22:45:36.493Z,29.87
2018-11-21T22:48:24.097Z,28.80
2018-11-21T22:51:11.681Z,27.67
2018-11-21T22:53:59.293Z,27.47
2018-11-21T22:56:47.111Z,27.33
2018-11-21T22:59:34.723Z,27.57
2018-11-21T23:02:22.326Z,27.20
2018-11-21T23:05:10.144Z,26.60
2018-11-21T23:07:57.745Z,27.03
2018-11-21T23:10:45.367Z,28.10
2018-11-21T23:13:32.970Z,29.57
2018-11-21T23:16:20.563Z,28.80
2018-11-21T23:19:08.147Z,29.27
2018-11-21T23:21:55.730Z,29.87
2018-11-21T23:24:43.329Z,29.60
2018-11-21T23:27:30.901Z,29.57
2018-11-21T23:30:19.317Z,28.00
2018-11-21T23:33:06.908Z,28.53
2018-11-21T23:35:54.683Z,29.00
2018-11-21T23:38:42.297Z,30.33
2018-11-21T23:41:29.879Z,31.27
2018-11-21T23:44:17.476Z,31.13
2018-11-21T23:47:05.085Z,29.83
2018-11-21T23:49:52.685Z,30.77
2018-11-21T23:52:40.316Z,29.73
2018-11-21T23:55:27.911Z,30.67
2018-11-21T23:58:15.526Z,30.03
